Time;durP1;ratioP1;P1;durP2;ratioP2;P2;SDS_P1;SDS_P2;PMS_P1;PMS_P2;Temp;Humidity;BMP_temperature;BMP_pressure;BME280_temperature;BME280_humidity;BME280_pressure;Samples;Min_cycle;Max_cycle;Signal;HPM_P1;HPM_P2
2023/07/29 00:01:03;;;;;;;13.77;10.20;;;19.30;1.00;;;;;;5045849;28;20874;-78
2023/07/29 00:03:32;;;;;;;10.03;9.03;;;19.20;1.00;;;;;;5045844;28;20511;-78
2023/07/29 00:06:00;;;;;;;10.67;9.57;;;19.20;1.00;;;;;;5049000;28;20505;-78
2023/07/29 00:08:27;;;;;;;10.63;9.53;;;19.20;1.00;;;;;;5050385;28;20478;-77
2023/07/29 00:10:54;;;;;;;11.20;10.20;;;19.20;1.00;;;;;;5045198;28;20515;-77
2023/07/29 00:13:21;;;;;;;10.33;9.03;;;19.20;1.00;;;;;;5048645;28;20566;-77
2023/07/29 00:15:48;;;;;;;10.40;9.60;;;19.10;1.00;;;;;;5047578;28;20554;-77
2023/07/29 00:18:15;;;;;;;12.93;11.67;;;19.10;1.00;;;;;;5052398;28;20490;-78
2023/07/29 00:20:43;;;;;;;10.77;9.77;;;19.10;1.00;;;;;;5049829;28;20475;-78
2023/07/29 00:23:10;;;;;;;10.27;9.33;;;19.10;1.00;;;;;;5047930;28;20453;-78
2023/07/29 00:25:37;;;;;;;10.20;9.13;;;19.20;1.00;;;;;;5048309;28;20606;-78
2023/07/29 00:28:05;;;;;;;12.27;11.00;;;19.20;1.00;;;;;;5030586;28;20463;-78
2023/07/29 00:30:32;;;;;;;10.80;9.87;;;19.10;1.00;;;;;;5046180;28;20503;-78
2023/07/29 00:32:59;;;;;;;11.30;10.40;;;19.10;1.00;;;;;;5047615;28;20808;-77
2023/07/29 00:35:26;;;;;;;9.63;8.63;;;19.10;1.00;;;;;;5046183;28;20477;-78
2023/07/29 00:37:55;;;;;;;10.60;9.70;;;19.00;1.00;;;;;;5048864;28;20438;-78
2023/07/29 00:40:23;;;;;;;10.50;9.53;;;19.00;1.00;;;;;;5045514;28;21378;-79
2023/07/29 00:42:53;;;;;;;12.63;11.53;;;19.00;1.00;;;;;;5046293;28;20463;-78
2023/07/29 00:45:20;;;;;;;13.40;11.57;;;18.90;1.00;;;;;;5046820;28;20574;-78
2023/07/29 00:47:49;;;;;;;10.57;9.67;;;18.90;1.00;;;;;;5050164;28;20541;-77
2023/07/29 00:50:18;;;;;;;10.90;9.80;;;18.90;1.00;;;;;;5047526;28;20526;-78
2023/07/29 00:52:45;;;;;;;9.87;9.07;;;18.90;1.00;;;;;;5047422;28;20495;-78
2023/07/29 00:55:14;;;;;;;10.70;9.60;;;18.90;1.00;;;;;;5047215;28;20457;-78
2023/07/29 00:57:42;;;;;;;11.30;10.30;;;18.90;1.00;;;;;;5050658;28;20479;-79
2023/07/29 01:00:11;;;;;;;10.10;9.30;;;18.90;1.00;;;;;;5048808;28;20452;-78
2023/07/29 01:02:38;;;;;;;11.03;10.03;;;18.90;1.00;;;;;;5045663;28;20471;-79
2023/07/29 01:05:06;;;;;;;10.70;9.60;;;18.90;1.00;;;;;;5064389;22;20488;-74
2023/07/29 01:07:40;;;;;;;10.50;9.50;;;18.90;1.00;;;;;;5033108;28;21324;-76
2023/07/29 01:10:12;;;;;;;10.00;9.03;;;18.90;1.00;;;;;;5031272;28;20546;-77
2023/07/29 01:12:52;;;;;;;10.40;9.37;;;18.90;1.00;;;;;;5029242;28;20465;-77
2023/07/29 01:15:25;;;;;;;11.23;10.10;;;19.00;1.00;;;;;;5031505;28;20546;-75
2023/07/29 01:17:56;;;;;;;10.33;9.30;;;18.90;1.00;;;;;;5034237;28;21012;-76
2023/07/29 01:20:27;;;;;;;10.03;9.17;;;18.80;1.00;;;;;;5037118;28;20490;-76
2023/07/29 01:22:54;;;;;;;11.40;10.30;;;18.90;1.00;;;;;;5025080;28;20481;-76
2023/07/29 01:25:22;;;;;;;10.60;9.60;;;18.80;1.00;;;;;;5026339;28;20964;-76
2023/07/29 01:27:52;;;;;;;11.37;10.37;;;18.70;1.00;;;;;;5030303;28;20460;-76
2023/07/29 01:30:20;;;;;;;10.60;9.60;;;18.70;1.00;;;;;;5035601;28;20472;-76
2023/07/29 01:32:55;;;;;;;11.90;9.37;;;18.60;1.00;;;;;;5036638;28;20457;-76
2023/07/29 01:35:27;;;;;;;9.60;8.70;;;18.60;1.00;;;;;;5027746;28;20480;-77
2023/07/29 01:38:02;;;;;;;10.97;8.93;;;18.60;1.00;;;;;;5034543;28;20472;-76
2023/07/29 01:40:31;;;;;;;9.67;8.87;;;18.50;1.00;;;;;;5033462;28;20534;-76
2023/07/29 01:42:58;;;;;;;11.37;10.37;;;18.40;1.00;;;;;;5032402;28;20476;-77
2023/07/29 01:45:26;;;;;;;12.03;10.83;;;18.40;1.00;;;;;;5033223;28;20546;-75
2023/07/29 01:47:53;;;;;;;12.67;11.37;;;18.40;1.00;;;;;;5030423;28;20982;-76
2023/07/29 01:50:22;;;;;;;12.77;11.67;;;18.40;1.00;;;;;;5037392;28;20517;-75
2023/07/29 01:52:49;;;;;;;12.70;10.90;;;18.40;1.00;;;;;;5031894;28;20484;-76
2023/07/29 01:55:16;;;;;;;11.40;10.30;;;18.40;1.00;;;;;;5031500;28;20984;-75
2023/07/29 01:57:45;;;;;;;15.90;14.30;;;18.40;1.00;;;;;;5026246;28;20465;-76
2023/07/29 02:00:14;;;;;;;12.37;11.13;;;18.40;1.00;;;;;;5031511;28;20420;-75
2023/07/29 02:02:41;;;;;;;10.93;9.80;;;18.30;1.00;;;;;;5028391;28;20419;-76
2023/07/29 02:05:08;;;;;;;11.80;10.70;;;18.30;1.00;;;;;;5032069;28;20538;-75
2023/07/29 02:07:35;;;;;;;12.17;10.90;;;18.20;1.00;;;;;;5029721;28;20496;-76
2023/07/29 02:10:03;;;;;;;11.17;9.87;;;18.10;1.00;;;;;;5029344;28;20466;-75
2023/07/29 02:12:30;;;;;;;11.87;10.83;;;18.20;1.00;;;;;;5030342;28;20444;-76
2023/07/29 02:14:58;;;;;;;10.30;9.30;;;18.20;1.00;;;;;;5031240;28;20533;-75
2023/07/29 02:17:26;;;;;;;10.77;9.73;;;18.20;1.00;;;;;;5034846;28;20522;-76
2023/07/29 02:19:53;;;;;;;10.80;9.93;;;18.20;1.00;;;;;;5032998;28;20535;-75
2023/07/29 02:22:20;;;;;;;12.53;11.33;;;18.30;1.00;;;;;;5034346;28;20455;-76
2023/07/29 02:24:47;;;;;;;11.77;10.60;;;18.20;1.00;;;;;;5027327;28;20476;-76
2023/07/29 02:27:14;;;;;;;10.93;9.87;;;18.10;1.00;;;;;;5040265;28;20456;-76
2023/07/29 02:29:41;;;;;;;13.03;10.50;;;18.10;1.00;;;;;;5028824;28;21005;-76
2023/07/29 02:32:09;;;;;;;11.70;10.67;;;18.00;1.00;;;;;;5031175;28;21027;-76
2023/07/29 02:34:36;;;;;;;11.50;10.33;;;17.90;1.00;;;;;;5030863;28;20449;-75
2023/07/29 02:37:04;;;;;;;12.20;11.13;;;17.80;1.00;;;;;;5028284;28;20533;-75
2023/07/29 02:39:31;;;;;;;10.07;9.17;;;17.90;1.00;;;;;;5028428;28;20512;-76
2023/07/29 02:41:58;;;;;;;12.43;11.20;;;17.90;1.00;;;;;;5030774;28;20467;-75
2023/07/29 02:44:26;;;;;;;13.10;11.70;;;17.90;1.00;;;;;;5029450;28;20979;-75
2023/07/29 02:46:55;;;;;;;11.57;10.43;;;17.70;1.00;;;;;;5031892;28;21027;-77
2023/07/29 02:49:24;;;;;;;10.90;9.90;;;17.70;1.00;;;;;;5025873;28;20533;-75
2023/07/29 02:51:52;;;;;;;11.90;10.70;;;17.80;1.00;;;;;;5030969;28;20462;-77
2023/07/29 02:54:22;;;;;;;10.60;9.50;;;17.80;1.00;;;;;;5029300;28;20469;-75
2023/07/29 02:56:51;;;;;;;12.07;10.97;;;17.80;1.00;;;;;;5018131;28;20460;-77
2023/07/29 02:59:19;;;;;;;12.03;10.90;;;17.80;1.00;;;;;;5029700;28;20838;-76
2023/07/29 03:01:46;;;;;;;11.37;10.30;;;17.70;1.00;;;;;;5028697;28;20462;-77
2023/07/29 03:04:14;;;;;;;10.07;9.27;;;17.70;1.00;;;;;;5027058;28;20490;-76
2023/07/29 03:06:42;;;;;;;11.70;10.60;;;17.80;1.00;;;;;;5029126;28;20882;-77
2023/07/29 03:09:09;;;;;;;12.50;11.40;;;17.80;1.00;;;;;;5025500;28;20519;-78
2023/07/29 03:11:38;;;;;;;11.07;10.07;;;17.80;1.00;;;;;;5027950;28;20490;-77
2023/07/29 03:14:05;;;;;;;11.53;10.60;;;17.70;1.00;;;;;;5030620;28;21005;-77
2023/07/29 03:16:32;;;;;;;11.30;10.20;;;17.80;1.00;;;;;;5028879;28;20892;-77
2023/07/29 03:19:00;;;;;;;12.70;11.50;;;17.90;1.00;;;;;;5031337;28;20976;-77
2023/07/29 03:21:27;;;;;;;11.60;10.60;;;17.70;1.00;;;;;;5026275;28;20463;-77
2023/07/29 03:23:55;;;;;;;13.53;11.77;;;17.80;1.00;;;;;;5025416;28;20900;-77
2023/07/29 03:26:23;;;;;;;11.57;10.53;;;17.70;1.00;;;;;;5027443;28;20996;-79
2023/07/29 03:28:51;;;;;;;13.93;12.63;;;17.70;1.00;;;;;;5033901;28;21051;-77
2023/07/29 03:31:18;;;;;;;13.30;12.00;;;17.80;1.00;;;;;;5029411;28;20468;-77
2023/07/29 03:33:46;;;;;;;11.47;10.37;;;17.70;1.00;;;;;;5030357;28;21033;-77
2023/07/29 03:36:14;;;;;;;10.40;9.33;;;17.70;1.00;;;;;;5026982;28;20452;-77
2023/07/29 03:38:41;;;;;;;11.40;10.40;;;17.60;1.00;;;;;;5028223;28;20525;-76
2023/07/29 03:41:11;;;;;;;14.60;11.83;;;17.60;1.00;;;;;;5026824;28;20510;-77
2023/07/29 03:43:38;;;;;;;12.37;11.03;;;17.50;1.00;;;;;;5031088;28;20480;-78
2023/07/29 03:46:06;;;;;;;12.60;11.50;;;17.50;1.00;;;;;;5028058;28;20470;-77
2023/07/29 03:48:33;;;;;;;12.50;11.20;;;17.50;1.00;;;;;;5028706;28;21017;-77
2023/07/29 03:51:00;;;;;;;12.53;11.33;;;17.50;1.00;;;;;;5021515;28;20524;-76
2023/07/29 03:53:27;;;;;;;10.13;9.23;;;17.50;1.00;;;;;;5028654;28;20913;-78
2023/07/29 03:55:55;;;;;;;11.00;10.00;;;17.50;1.00;;;;;;5024316;28;20521;-76
2023/07/29 03:58:23;;;;;;;10.80;9.97;;;17.50;1.00;;;;;;5026306;28;20550;-76
2023/07/29 04:00:50;;;;;;;12.23;11.13;;;17.50;1.00;;;;;;5024789;28;20467;-77
2023/07/29 04:03:20;;;;;;;12.10;10.93;;;17.60;1.00;;;;;;5024669;28;20477;-77
2023/07/29 04:05:48;;;;;;;12.50;11.50;;;17.50;1.00;;;;;;5031744;28;20881;-77
2023/07/29 04:08:14;;;;;;;12.07;11.00;;;17.60;1.00;;;;;;5030019;28;20479;-77
2023/07/29 04:10:41;;;;;;;11.27;10.13;;;17.60;1.00;;;;;;5031606;28;20924;-77
2023/07/29 04:13:08;;;;;;;11.53;10.33;;;17.70;1.00;;;;;;5028189;28;20530;-77
2023/07/29 04:15:41;;;;;;;11.90;10.90;;;17.70;1.00;;;;;;5029027;28;20545;-78
2023/07/29 04:18:08;;;;;;;11.47;10.47;;;17.70;1.00;;;;;;5025901;28;20446;-76
2023/07/29 04:20:36;;;;;;;12.70;10.33;;;17.90;1.00;;;;;;5027669;28;20877;-79
2023/07/29 04:23:03;;;;;;;11.87;10.87;;;17.90;1.00;;;;;;5024318;28;20637;-77
2023/07/29 04:25:30;;;;;;;12.53;11.43;;;18.00;1.00;;;;;;5025699;28;20455;-77
2023/07/29 04:27:58;;;;;;;11.27;10.37;;;18.10;1.00;;;;;;5026790;28;20470;-77
2023/07/29 04:30:26;;;;;;;13.23;11.63;;;18.10;1.00;;;;;;5022456;28;20858;-78
2023/07/29 04:32:55;;;;;;;11.10;10.20;;;18.20;1.00;;;;;;5024859;28;20483;-76
2023/07/29 04:35:22;;;;;;;11.20;10.27;;;18.30;1.00;;;;;;5026694;28;20602;-76
2023/07/29 04:37:50;;;;;;;11.63;10.60;;;18.40;1.00;;;;;;5026537;28;20499;-77
2023/07/29 04:40:17;;;;;;;12.40;11.40;;;18.40;1.00;;;;;;5025103;28;20555;-77
2023/07/29 04:42:44;;;;;;;11.83;10.73;;;18.40;1.00;;;;;;5028806;28;21057;-77
2023/07/29 04:45:12;;;;;;;12.50;11.50;;;18.50;1.00;;;;;;5026285;28;20450;-77
2023/07/29 04:47:38;;;;;;;11.00;10.07;;;18.60;1.00;;;;;;5029179;28;20551;-77
2023/07/29 04:50:09;;;;;;;11.33;10.33;;;18.70;1.00;;;;;;5030837;28;20893;-77
2023/07/29 04:52:36;;;;;;;11.83;10.73;;;18.80;1.00;;;;;;5034272;28;20469;-77
2023/07/29 04:55:03;;;;;;;11.43;10.33;;;18.80;1.00;;;;;;5027494;28;20452;-77
2023/07/29 04:57:30;;;;;;;11.03;10.03;;;18.70;1.00;;;;;;5032650;28;20458;-77
2023/07/29 04:59:57;;;;;;;11.63;10.53;;;18.60;1.00;;;;;;5030534;28;20495;-77
2023/07/29 05:02:24;;;;;;;12.60;11.40;;;18.60;1.00;;;;;;5028511;28;20489;-77
2023/07/29 05:04:52;;;;;;;13.13;11.93;;;18.60;1.00;;;;;;5030501;28;20500;-77
2023/07/29 05:07:23;;;;;;;12.30;11.10;;;18.60;1.00;;;;;;5029278;28;20540;-78
2023/07/29 05:09:50;;;;;;;12.03;11.03;;;18.70;1.00;;;;;;5022563;28;20484;-78
2023/07/29 05:12:17;;;;;;;12.03;10.93;;;18.80;1.00;;;;;;5028491;28;20474;-77
2023/07/29 05:14:44;;;;;;;11.03;9.97;;;18.80;1.00;;;;;;5031661;28;20951;-77
2023/07/29 05:17:11;;;;;;;11.90;10.90;;;19.00;1.00;;;;;;5027277;28;20451;-78
2023/07/29 05:19:38;;;;;;;11.90;10.90;;;19.00;1.00;;;;;;5031225;28;21097;-78
2023/07/29 05:22:05;;;;;;;12.23;11.03;;;19.10;1.00;;;;;;5029800;28;20836;-78
2023/07/29 05:24:34;;;;;;;12.10;10.90;;;19.00;1.00;;;;;;5030672;28;20514;-76
2023/07/29 05:27:01;;;;;;;11.03;10.03;;;19.10;1.00;;;;;;5028065;28;20471;-78
2023/07/29 05:29:28;;;;;;;11.47;10.47;;;19.20;1.00;;;;;;5027706;28;20838;-78
2023/07/29 05:31:55;;;;;;;10.67;9.83;;;19.10;1.00;;;;;;5025214;28;20439;-77
2023/07/29 05:34:22;;;;;;;10.80;9.90;;;19.40;1.00;;;;;;5028695;28;20461;-78
2023/07/29 05:36:49;;;;;;;10.43;9.53;;;19.60;1.00;;;;;;5030539;28;20460;-78
2023/07/29 05:39:16;;;;;;;9.93;9.13;;;19.70;1.00;;;;;;5028100;28;20469;-77
2023/07/29 05:41:45;;;;;;;10.27;9.43;;;20.00;1.00;;;;;;5025965;28;20524;-76
2023/07/29 05:44:13;;;;;;;10.67;9.70;;;20.10;1.00;;;;;;5031844;28;20560;-77
2023/07/29 05:46:39;;;;;;;8.97;8.23;;;20.20;1.00;;;;;;5027017;28;20470;-76
2023/07/29 05:49:07;;;;;;;9.83;8.93;;;20.20;1.00;;;;;;5032383;28;20541;-75
2023/07/29 05:51:34;;;;;;;9.33;8.60;;;20.10;1.00;;;;;;5028920;28;20447;-77
2023/07/29 05:54:01;;;;;;;8.37;7.73;;;20.20;1.00;;;;;;5029578;28;20469;-77
2023/07/29 05:56:28;;;;;;;8.63;7.93;;;20.30;1.00;;;;;;5027307;28;20505;-78
2023/07/29 05:58:56;;;;;;;8.27;7.57;;;20.30;1.00;;;;;;5029629;28;20553;-77
2023/07/29 06:01:24;;;;;;;8.23;7.63;;;20.40;1.00;;;;;;5027753;28;21027;-77
2023/07/29 06:03:51;;;;;;;9.10;8.20;;;20.50;1.00;;;;;;5026119;28;20888;-75
2023/07/29 06:06:18;;;;;;;8.60;7.80;;;20.50;1.00;;;;;;5028366;28;20466;-75
2023/07/29 06:08:44;;;;;;;9.00;8.10;;;20.60;1.00;;;;;;5030907;28;20458;-76
2023/07/29 06:11:11;;;;;;;8.40;7.73;;;20.70;1.00;;;;;;5029878;28;20958;-76
2023/07/29 06:13:39;;;;;;;8.53;7.73;;;20.70;1.00;;;;;;5027310;28;20463;-78
2023/07/29 06:16:08;;;;;;;8.90;8.20;;;20.70;1.00;;;;;;5027316;28;20674;-75
2023/07/29 06:18:35;;;;;;;8.13;7.40;;;20.70;1.00;;;;;;5030710;28;20859;-76
2023/07/29 06:21:07;;;;;;;7.40;6.80;;;20.90;1.00;;;;;;5026905;28;20468;-76
2023/07/29 06:23:34;;;;;;;7.63;6.80;;;21.10;1.00;;;;;;5024871;28;20465;-76
2023/07/29 06:26:01;;;;;;;7.50;6.30;;;21.10;1.00;;;;;;5027100;28;20513;-75
2023/07/29 06:28:28;;;;;;;6.33;5.83;;;20.90;1.00;;;;;;5023714;28;20532;-75
2023/07/29 06:30:56;;;;;;;6.33;5.83;;;20.90;1.00;;;;;;5028479;28;20480;-76
2023/07/29 06:33:24;;;;;;;6.93;6.33;;;21.00;1.00;;;;;;5025076;28;20452;-76
2023/07/29 06:35:51;;;;;;;6.90;6.20;;;21.10;1.00;;;;;;5031448;28;20471;-76
2023/07/29 06:38:21;;;;;;;6.73;6.13;;;21.20;1.00;;;;;;5028174;28;20453;-76
2023/07/29 06:40:48;;;;;;;6.50;5.80;;;21.30;1.00;;;;;;5029810;28;20488;-76
2023/07/29 06:43:15;;;;;;;7.07;6.37;;;21.30;1.00;;;;;;5024832;28;20457;-77
2023/07/29 06:45:43;;;;;;;6.60;6.10;;;21.30;1.00;;;;;;5028118;28;20523;-75
2023/07/29 06:48:10;;;;;;;5.97;5.43;;;21.40;1.00;;;;;;5027542;28;20443;-76
2023/07/29 06:50:39;;;;;;;10.73;6.30;;;21.40;1.00;;;;;;5025841;28;20489;-75
2023/07/29 06:53:07;;;;;;;5.90;5.50;;;21.50;1.00;;;;;;5027106;28;20458;-76
2023/07/29 06:55:34;;;;;;;5.80;5.20;;;21.60;1.00;;;;;;5029071;28;20453;-74
2023/07/29 06:58:01;;;;;;;5.27;4.87;;;21.70;1.00;;;;;;5026362;28;20560;-75
2023/07/29 07:00:30;;;;;;;5.17;4.77;;;21.90;1.00;;;;;;5028145;28;20489;-76
2023/07/29 07:02:58;;;;;;;5.80;5.30;;;22.20;1.00;;;;;;5028262;28;20449;-74
2023/07/29 07:05:26;;;;;;;5.77;5.27;;;22.30;1.00;;;;;;5030935;28;20464;-75
2023/07/29 07:07:55;;;;;;;6.27;5.67;;;22.60;1.00;;;;;;5027486;28;20542;-75
2023/07/29 07:10:22;;;;;;;5.87;5.37;;;22.60;1.00;;;;;;5028214;28;20568;-76
2023/07/29 07:12:49;;;;;;;5.80;5.27;;;22.80;1.00;;;;;;5026512;28;20455;-74
2023/07/29 07:15:16;;;;;;;5.80;5.20;;;23.00;1.00;;;;;;5026642;28;20452;-74
2023/07/29 07:17:45;;;;;;;9.90;9.00;;;23.20;1.00;;;;;;5033191;28;20523;-75
2023/07/29 07:20:14;;;;;;;5.17;4.77;;;23.30;1.00;;;;;;5029134;28;20506;-76
2023/07/29 07:22:41;;;;;;;6.40;5.90;;;23.40;1.00;;;;;;5038248;28;20867;-75
2023/07/29 07:25:10;;;;;;;6.67;5.97;;;23.40;1.00;;;;;;5030310;28;20511;-76
2023/07/29 07:27:39;;;;;;;5.27;4.97;;;23.40;1.00;;;;;;5030167;28;20972;-75
2023/07/29 07:30:08;;;;;;;6.77;6.27;;;23.40;1.00;;;;;;5024464;28;20456;-75
2023/07/29 07:32:35;;;;;;;5.87;5.37;;;23.40;1.00;;;;;;5030855;28;20423;-73
2023/07/29 07:35:02;;;;;;;6.23;5.63;;;23.40;1.00;;;;;;5029337;28;20455;-75
2023/07/29 07:37:29;;;;;;;6.13;5.63;;;23.50;1.00;;;;;;5030164;28;20451;-74
2023/07/29 07:39:56;;;;;;;6.47;5.90;;;23.60;1.00;;;;;;5028541;28;20617;-78
2023/07/29 07:42:25;;;;;;;5.90;5.40;;;23.80;1.00;;;;;;5030749;28;20440;-75
2023/07/29 07:44:52;;;;;;;6.70;5.60;;;24.10;1.00;;;;;;5022518;28;20509;-76
2023/07/29 07:47:19;;;;;;;5.33;4.93;;;24.30;1.00;;;;;;5027707;28;20515;-76
2023/07/29 07:49:46;;;;;;;6.27;5.80;;;24.50;1.00;;;;;;5032096;28;20471;-76
2023/07/29 07:52:13;;;;;;;5.80;5.40;;;24.70;1.00;;;;;;5027618;28;20462;-74
2023/07/29 07:54:40;;;;;;;7.53;5.47;;;24.60;1.00;;;;;;5033498;28;20912;-75
2023/07/29 07:57:07;;;;;;;6.03;5.63;;;24.60;1.00;;;;;;5027829;28;20466;-76
2023/07/29 07:59:36;;;;;;;6.23;5.63;;;24.60;1.00;;;;;;5028385;28;20604;-76
2023/07/29 08:02:03;;;;;;;6.40;5.80;;;24.80;1.00;;;;;;5030564;28;21013;-76
2023/07/29 08:04:30;;;;;;;6.03;5.53;;;25.10;1.00;;;;;;5027727;28;20424;-74
2023/07/29 08:06:58;;;;;;;5.87;5.47;;;25.40;1.00;;;;;;5027437;28;21060;-75
2023/07/29 08:09:26;;;;;;;6.67;6.17;;;25.50;1.00;;;;;;5027783;28;20521;-77
2023/07/29 08:11:56;;;;;;;5.70;5.30;;;25.40;1.00;;;;;;5023850;28;20491;-75
2023/07/29 08:14:24;;;;;;;6.10;5.60;;;25.50;1.00;;;;;;5030007;28;20452;-75
2023/07/29 08:16:52;;;;;;;5.50;5.10;;;25.40;1.00;;;;;;5027984;28;20463;-75
2023/07/29 08:19:20;;;;;;;6.17;5.67;;;25.50;1.00;;;;;;5027631;28;20479;-75
2023/07/29 08:21:48;;;;;;;6.33;5.93;;;25.60;1.00;;;;;;5029672;28;20516;-76
2023/07/29 08:24:15;;;;;;;5.67;5.27;;;25.50;1.00;;;;;;5029907;28;20466;-75
2023/07/29 08:26:43;;;;;;;6.00;5.60;;;25.40;1.00;;;;;;5032628;28;20500;-75
2023/07/29 08:29:10;;;;;;;5.40;5.00;;;25.40;1.00;;;;;;5029940;28;20446;-77
2023/07/29 08:31:37;;;;;;;4.70;4.40;;;25.60;1.00;;;;;;5028649;28;20457;-77
2023/07/29 08:34:10;;;;;;;5.87;5.47;;;25.60;1.00;;;;;;5033653;28;20469;-76
2023/07/29 08:36:37;;;;;;;5.47;5.07;;;25.80;1.00;;;;;;5029473;28;20527;-75
2023/07/29 08:39:04;;;;;;;4.70;4.30;;;26.00;1.00;;;;;;5034233;28;20476;-75
2023/07/29 08:41:39;;;;;;;4.97;4.60;;;26.30;1.00;;;;;;5029611;28;21049;-76
2023/07/29 08:44:13;;;;;;;5.40;4.90;;;26.50;1.00;;;;;;5030548;28;20457;-75
2023/07/29 08:46:40;;;;;;;5.60;5.10;;;26.40;1.00;;;;;;5028930;28;20456;-76
2023/07/29 08:49:09;;;;;;;5.77;5.27;;;26.50;1.00;;;;;;5029802;28;20997;-74
2023/07/29 08:51:37;;;;;;;4.87;4.50;;;26.50;1.00;;;;;;5033185;28;21005;-76
2023/07/29 08:54:07;;;;;;;6.67;5.20;;;26.70;1.00;;;;;;5031718;28;20489;-75
2023/07/29 08:56:35;;;;;;;5.83;4.60;;;26.60;1.00;;;;;;5029397;28;20444;-74
2023/07/29 08:59:04;;;;;;;4.90;4.50;;;26.40;1.00;;;;;;5029052;28;20505;-76
2023/07/29 09:01:31;;;;;;;5.80;4.50;;;26.40;1.00;;;;;;5033373;28;20541;-76
2023/07/29 09:03:58;;;;;;;4.40;4.10;;;26.20;1.00;;;;;;5027356;28;20487;-78
2023/07/29 09:06:27;;;;;;;3.93;3.73;;;26.30;1.00;;;;;;5031979;28;20452;-75
2023/07/29 09:08:59;;;;;;;4.27;3.97;;;26.40;1.00;;;;;;5031530;28;20893;-75
2023/07/29 09:11:26;;;;;;;5.67;5.17;;;26.50;1.00;;;;;;5035763;28;20464;-77
2023/07/29 09:13:53;;;;;;;5.30;4.83;;;26.80;1.00;;;;;;5033538;28;20461;-77
2023/07/29 09:16:23;;;;;;;6.30;5.90;;;27.00;1.00;;;;;;5020598;28;20508;-77
2023/07/29 09:18:51;;;;;;;6.30;5.80;;;27.20;1.00;;;;;;5036385;28;20627;-78
2023/07/29 09:21:19;;;;;;;4.50;4.20;;;27.30;1.00;;;;;;5034021;28;20920;-78
2023/07/29 09:23:47;;;;;;;4.20;3.90;;;27.50;1.00;;;;;;5029168;28;20443;-78
2023/07/29 09:26:14;;;;;;;3.90;3.70;;;27.60;1.00;;;;;;5026252;28;20921;-78
2023/07/29 09:28:44;;;;;;;3.67;3.47;;;27.50;1.00;;;;;;5027616;28;20464;-78
2023/07/29 09:31:21;;;;;;;3.67;3.37;;;27.40;1.00;;;;;;5044744;28;20450;-79
2023/07/29 09:33:48;;;;;;;4.10;3.80;;;27.60;1.00;;;;;;5033684;28;20506;-78
2023/07/29 09:36:17;;;;;;;3.70;3.40;;;27.70;1.00;;;;;;5030091;28;20452;-78
2023/07/29 09:38:48;;;;;;;3.70;3.40;;;27.70;1.00;;;;;;5029309;28;20491;-79
2023/07/29 09:41:18;;;;;;;9.43;4.13;;;27.60;1.00;;;;;;5026491;28;20475;-78
2023/07/29 09:43:45;;;;;;;3.63;3.33;;;27.60;1.00;;;;;;5028896;28;20501;-77
2023/07/29 09:46:12;;;;;;;5.87;4.40;;;27.90;1.00;;;;;;5030110;28;20831;-78
2023/07/29 09:48:41;;;;;;;4.77;3.23;;;28.50;1.00;;;;;;5024166;28;20477;-78
2023/07/29 09:51:12;;;;;;;3.50;3.20;;;29.10;1.00;;;;;;5030618;28;20841;-78
2023/07/29 09:53:44;;;;;;;3.37;3.10;;;29.20;1.00;;;;;;5029971;28;20569;-80
2023/07/29 09:56:13;;;;;;;3.80;3.50;;;28.60;1.00;;;;;;5029754;28;20448;-78
2023/07/29 09:58:40;;;;;;;3.57;3.27;;;28.40;1.00;;;;;;5020785;28;20459;-77
2023/07/29 10:01:07;;;;;;;4.70;4.23;;;28.20;1.00;;;;;;5036773;28;20555;-78
2023/07/29 10:03:35;;;;;;;3.63;3.33;;;28.20;1.00;;;;;;5029064;28;20953;-77
2023/07/29 10:06:05;;;;;;;3.70;3.40;;;28.10;1.00;;;;;;5026694;28;20511;-76
2023/07/29 10:08:35;;;;;;;3.70;3.50;;;28.10;1.00;;;;;;5025373;28;20942;-77
2023/07/29 10:11:03;;;;;;;3.27;3.07;;;28.40;1.00;;;;;;5029109;28;20913;-79
2023/07/29 10:13:35;;;;;;;3.47;3.20;;;28.70;1.00;;;;;;5028111;28;20468;-79
2023/07/29 10:16:03;;;;;;;3.60;3.30;;;29.20;1.00;;;;;;5027848;28;20485;-78
2023/07/29 10:18:31;;;;;;;3.10;2.90;;;29.50;1.00;;;;;;5029302;28;20465;-77
2023/07/29 10:21:00;;;;;;;4.00;3.60;;;29.50;1.00;;;;;;5027263;28;20452;-79
2023/07/29 10:23:29;;;;;;;3.50;3.20;;;29.50;1.00;;;;;;5024887;28;20955;-79
2023/07/29 10:26:05;;;;;;;2.80;2.60;;;29.20;1.00;;;;;;5028408;28;20422;-78
2023/07/29 10:28:40;;;;;;;3.30;3.03;;;29.40;1.00;;;;;;5032288;28;20461;-79
2023/07/29 10:31:11;;;;;;;3.03;2.83;;;29.50;1.00;;;;;;5030838;28;20470;-77
2023/07/29 10:33:40;;;;;;;4.40;3.17;;;28.90;1.00;;;;;;5027894;28;20456;-77
2023/07/29 10:36:07;;;;;;;3.80;2.50;;;28.80;1.00;;;;;;5030131;28;21005;-78
2023/07/29 10:38:37;;;;;;;2.80;2.60;;;28.50;1.00;;;;;;5025712;28;20488;-78
2023/07/29 10:41:04;;;;;;;2.73;2.53;;;28.00;1.00;;;;;;5025768;28;20878;-77
2023/07/29 10:43:38;;;;;;;2.97;2.67;;;28.10;1.00;;;;;;5029069;28;20880;-79
2023/07/29 10:46:21;;;;;;;3.20;2.50;;;28.30;1.00;;;;;;5029372;28;20456;-77
2023/07/29 10:48:56;;;;;;;2.60;2.43;;;28.20;1.00;;;;;;5025262;28;20956;-78
2023/07/29 10:51:30;;;;;;;4.07;2.73;;;28.30;1.00;;;;;;5020891;28;20570;-78
2023/07/29 10:53:59;;;;;;;4.10;2.83;;;28.50;1.00;;;;;;5039097;28;20463;-78
2023/07/29 10:56:37;;;;;;;2.80;2.60;;;28.40;1.00;;;;;;5025721;28;20975;-77
2023/07/29 10:59:33;;;;;;;2.63;2.43;;;28.50;1.00;;;;;;5023606;28;21027;-76
2023/07/29 11:02:01;;;;;;;2.27;2.07;;;28.90;1.00;;;;;;5027113;28;20863;-79
2023/07/29 11:04:30;;;;;;;2.70;2.50;;;28.80;1.00;;;;;;5034437;28;20893;-76
2023/07/29 11:07:26;;;;;;;2.23;2.13;;;28.50;1.00;;;;;;5030875;28;20455;-78
2023/07/29 11:10:04;;;;;;;3.13;2.50;;;27.70;1.00;;;;;;5024255;28;20473;-79
2023/07/29 11:12:54;;;;;;;2.70;2.33;;;27.20;1.00;;;;;;5033526;28;20459;-78
2023/07/29 11:15:25;;;;;;;2.50;2.30;;;26.70;1.00;;;;;;5029610;28;20431;-78
2023/07/29 11:17:54;;;;;;;2.60;2.40;;;26.60;1.00;;;;;;5032440;28;20463;-79
2023/07/29 11:20:23;;;;;;;2.70;2.50;;;26.50;1.00;;;;;;5028192;28;20470;-77
2023/07/29 11:22:52;;;;;;;2.53;2.33;;;26.20;1.00;;;;;;5031266;28;21283;-77
2023/07/29 11:25:20;;;;;;;2.33;1.77;;;25.90;1.00;;;;;;5031167;28;20454;-76
2023/07/29 11:27:47;;;;;;;14.57;5.03;;;25.50;1.00;;;;;;5030144;28;20459;-77
2023/07/29 11:30:18;;;;;;;18.40;3.90;;;24.10;1.00;;;;;;5027251;28;20524;-77
2023/07/29 11:32:48;;;;;;;5.67;3.23;;;22.50;1.00;;;;;;5031715;28;20465;-76
2023/07/29 11:35:17;;;;;;;3.30;1.97;;;21.60;1.00;;;;;;5031020;28;20452;-79
2023/07/29 11:37:47;;;;;;;1.63;1.50;;;21.10;1.00;;;;;;5026345;28;20965;-76
2023/07/29 11:40:16;;;;;;;3.90;1.07;;;20.70;1.00;;;;;;5030504;28;20474;-78
2023/07/29 11:42:43;;;;;;;2.00;1.30;;;20.40;1.00;;;;;;5026358;28;20519;-77
2023/07/29 11:45:11;;;;;;;3.20;2.50;;;20.50;1.00;;;;;;5027876;28;20490;-78
2023/07/29 11:47:38;;;;;;;2.90;2.13;;;20.50;1.00;;;;;;5031240;28;20551;-77
2023/07/29 11:50:09;;;;;;;2.10;1.37;;;20.50;1.00;;;;;;5028312;28;20483;-77
2023/07/29 11:52:36;;;;;;;2.07;1.50;;;20.40;1.00;;;;;;5027551;28;20463;-77
2023/07/29 11:55:05;;;;;;;2.90;1.47;;;20.40;1.00;;;;;;5030243;28;20462;-77
2023/07/29 11:57:34;;;;;;;5.07;2.17;;;20.50;1.00;;;;;;5032143;28;20453;-77
2023/07/29 12:00:03;;;;;;;2.30;2.10;;;20.60;1.00;;;;;;5027560;28;20470;-76
2023/07/29 12:02:31;;;;;;;2.27;1.77;;;20.70;1.00;;;;;;5033116;28;20511;-76
2023/07/29 12:04:59;;;;;;;6.40;4.27;;;20.80;1.00;;;;;;5035032;28;20469;-75
2023/07/29 12:07:28;;;;;;;2.13;1.93;;;20.80;1.00;;;;;;5032919;28;20462;-76
2023/07/29 12:09:55;;;;;;;6.07;5.30;;;20.90;1.00;;;;;;5036399;28;20478;-77
2023/07/29 12:12:23;;;;;;;2.17;1.60;;;21.00;1.00;;;;;;5035517;28;20483;-76
2023/07/29 12:14:50;;;;;;;3.73;1.60;;;20.90;1.00;;;;;;5032728;28;20565;-77
2023/07/29 12:17:19;;;;;;;2.50;2.20;;;20.90;1.00;;;;;;5030104;28;20459;-77
2023/07/29 12:19:48;;;;;;;2.07;1.47;;;20.90;1.00;;;;;;5030158;28;20495;-77
2023/07/29 12:22:20;;;;;;;1.80;1.70;;;21.00;1.00;;;;;;5031521;28;20459;-76
2023/07/29 12:24:51;;;;;;;4.67;3.90;;;21.10;1.00;;;;;;5030988;28;20478;-76
2023/07/29 12:27:19;;;;;;;2.57;2.37;;;21.10;1.00;;;;;;5032124;28;20456;-77
2023/07/29 12:29:48;;;;;;;3.43;2.60;;;21.10;1.00;;;;;;5029605;28;20506;-76
2023/07/29 12:32:15;;;;;;;2.37;2.17;;;21.00;1.00;;;;;;5028925;28;21164;-76
2023/07/29 12:34:42;;;;;;;2.60;2.13;;;21.10;1.00;;;;;;5028529;28;20983;-76
2023/07/29 12:37:10;;;;;;;2.87;2.20;;;21.10;1.00;;;;;;5029465;28;20456;-75
2023/07/29 12:39:42;;;;;;;2.73;2.53;;;21.20;1.00;;;;;;5028553;28;20909;-78
2023/07/29 12:42:13;;;;;;;2.97;2.60;;;21.30;1.00;;;;;;5026708;28;20964;-76
2023/07/29 12:44:41;;;;;;;2.87;2.67;;;21.40;1.00;;;;;;5031503;28;20480;-76
2023/07/29 12:47:09;;;;;;;4.40;2.97;;;21.60;1.00;;;;;;5026688;28;20468;-78
2023/07/29 12:49:36;;;;;;;3.23;2.93;;;21.80;1.00;;;;;;5031831;28;20951;-76
2023/07/29 12:52:05;;;;;;;3.47;3.17;;;22.00;1.00;;;;;;5027686;28;20987;-76
2023/07/29 12:54:34;;;;;;;5.33;4.83;;;22.30;1.00;;;;;;5030836;28;20464;-77
2023/07/29 12:57:00;;;;;;;3.53;3.23;;;23.00;1.00;;;;;;5037330;28;20903;-77